Terminal Aerodrome Forecast
Issued by NWS Wichita, KS

Home | Current Version | Previous Version | Graphics & Text | Print | Product List | Glossary On
Versions: 1 2 3 4 5 6 7 8 9 10 11 12 13 14 15
000
FTUS43 KICT 151100
TAFICT
TAF
KICT 151120Z 1512/1612 31006KT P6SM SKC
     FM151500 23008KT P6SM SKC
     FM151900 20015G24KT P6SM SKC
     FM160100 17016G24KT P6SM SCT250=

USA.gov is the U.S. government's official web portal to all federal, state and local government web resources and services.